UATT 100100Z 06003MPS CAVOK 15/08 Q1017 NOSIG RMK QFE742/0990
QNH:(hPa/inHg/mmHg)1017 / 30.03 / 763
QFE:(hPa/inHg/mmHg)990 / 29.22 / 742
Temperature15
Dew Point8
Visibility> 10000
WeatherCAVOK
Cloud Cover
Transition Altitude10000 ft.
Transition LevelFL110
SQUAWK